createdAt,value
2022-08-11T00:05:04.423Z,101099.34
2022-08-11T00:10:08.271Z,101086.09
2022-08-11T00:15:12.034Z,101101.09
2022-08-11T00:20:17.151Z,101092.97
2022-08-11T00:25:21.109Z,101100.38
2022-08-11T00:30:23.870Z,101097.56
2022-08-11T00:35:54.595Z,101102.81
2022-08-11T00:40:56.118Z,101094.03
2022-08-11T00:46:26.392Z,101093.72
2022-08-11T00:52:03.981Z,101093.69
2022-08-11T00:57:37.747Z,101099.47
2022-08-11T01:02:47.807Z,101082.69
2022-08-11T01:08:15.879Z,101094.22
2022-08-11T01:13:30.774Z,101092.13
2022-08-11T01:18:53.974Z,101096.94
2022-08-11T01:24:29.509Z,101107.00
2022-08-11T01:29:55.285Z,101098.91
2022-08-11T01:35:28.745Z,101093.88
2022-08-11T01:41:13.176Z,101091.94
2022-08-11T01:46:17.364Z,101093.97
2022-08-11T01:51:30.202Z,101084.31
2022-08-11T01:56:43.212Z,101094.25
2022-08-11T02:01:58.337Z,101098.78
2022-08-11T02:07:09.037Z,101095.94
2022-08-11T02:12:16.413Z,101099.28
2022-08-11T02:17:20.883Z,101089.19
2022-08-11T02:22:47.779Z,101095.34
2022-08-11T02:27:53.966Z,101096.34
2022-08-11T02:33:20.142Z,101096.56
2022-08-11T02:38:27.476Z,101100.00
2022-08-11T02:43:37.738Z,101093.16
2022-08-11T02:49:06.913Z,101094.13
2022-08-11T02:54:14.298Z,101100.13
2022-08-11T02:59:41.589Z,101095.59
2022-08-11T03:04:51.366Z,101104.16
2022-08-11T03:09:59.772Z,101102.97
2022-08-11T03:15:22.379Z,101109.09
2022-08-11T03:20:33.468Z,101106.25
2022-08-11T03:25:47.636Z,101106.13
2022-08-11T03:30:55.220Z,101108.19
2022-08-11T03:36:07.078Z,101112.09
2022-08-11T03:42:03.768Z,101118.22
2022-08-11T03:47:04.747Z,101127.13
2022-08-11T03:52:12.920Z,101132.50
2022-08-11T03:57:46.261Z,101134.25
2022-08-11T04:03:16.616Z,101140.31
2022-08-11T04:08:45.014Z,101137.69
2022-08-11T04:14:41.856Z,101140.00
2022-08-11T04:19:55.962Z,101141.41
2022-08-11T04:25:12.130Z,101133.69
2022-08-11T04:30:17.529Z,101135.72
2022-08-11T04:35:39.248Z,101139.44
2022-08-11T04:41:14.361Z,101149.88
2022-08-11T04:46:42.425Z,101140.22
2022-08-11T04:52:25.129Z,101143.25
2022-08-11T04:58:03.097Z,101145.34
2022-08-11T05:03:32.484Z,101139.66
2022-08-11T05:08:57.236Z,101148.91
2022-08-11T05:14:37.115Z,101156.72
2022-08-11T05:19:57.275Z,101157.03
2022-08-11T05:26:08.971Z,101160.72
2022-08-11T05:31:03.418Z,101160.72
2022-08-11T05:36:09.792Z,101162.41
2022-08-11T05:41:31.512Z,101167.00
2022-08-11T05:46:57.718Z,101161.19
2022-08-11T05:52:18.314Z,101157.09
2022-08-11T05:57:50.379Z,101159.25
2022-08-11T06:02:49.599Z,101153.69
2022-08-11T06:07:54.126Z,101167.47
2022-08-11T06:12:58.429Z,101167.59
2022-08-11T06:18:02.848Z,101165.59
2022-08-11T06:23:07.794Z,101163.31
2022-08-11T06:28:15.983Z,101169.94
2022-08-11T06:33:37.075Z,101169.44
2022-08-11T06:38:47.981Z,101178.56
2022-08-11T06:43:55.315Z,101181.63
2022-08-11T06:48:59.306Z,101165.19
2022-08-11T06:54:04.272Z,101165.47
2022-08-11T06:59:32.417Z,101166.63
2022-08-11T07:04:41.729Z,101170.94
2022-08-11T07:10:22.772Z,101159.13
2022-08-11T07:16:10.924Z,101156.41
2022-08-11T07:21:59.917Z,101148.38
2022-08-11T07:27:12.140Z,101158.16
2022-08-11T07:32:24.268Z,101152.97
2022-08-11T07:37:27.346Z,101148.97
2022-08-11T07:42:31.502Z,101150.88
2022-08-11T07:47:53.765Z,101150.97
2022-08-11T07:52:56.792Z,101148.47
2022-08-11T07:58:19.778Z,101147.44
2022-08-11T08:03:54.827Z,101139.44
2022-08-11T08:09:15.665Z,101148.03
2022-08-11T08:14:36.314Z,101143.66
2022-08-11T08:19:41.224Z,101143.09
2022-08-11T08:24:44.028Z,101137.94
2022-08-11T08:30:04.508Z,101135.53
2022-08-11T08:35:09.138Z,101126.88
2022-08-11T08:40:12.414Z,101121.50
2022-08-11T08:45:16.237Z,101117.38
2022-08-11T08:50:27.762Z,101116.78
2022-08-11T08:55:30.874Z,101107.13
2022-08-11T09:00:40.541Z,101088.50
2022-08-11T09:05:44.849Z,101104.16
2022-08-11T09:10:47.739Z,101104.94
2022-08-11T09:15:54.435Z,101095.59
2022-08-11T09:21:00.500Z,101090.81
2022-08-11T09:26:20.913Z,101086.75
2022-08-11T09:31:24.146Z,101094.38
2022-08-11T09:36:54.618Z,101080.63
2022-08-11T09:42:02.895Z,101086.75
2022-08-11T09:47:15.057Z,101076.31
2022-08-11T09:52:19.170Z,101087.84
2022-08-11T09:57:39.829Z,101080.28
2022-08-11T10:02:45.001Z,101067.25
2022-08-11T10:07:52.395Z,101071.53
2022-08-11T10:12:58.001Z,101059.38
2022-08-11T10:18:21.474Z,101051.88
2022-08-11T10:24:00.451Z,101056.19
2022-08-11T10:29:44.259Z,101053.34
2022-08-11T10:34:49.551Z,101044.00
2022-08-11T10:40:02.346Z,101048.03
2022-08-11T10:45:26.172Z,101037.09
2022-08-11T10:50:46.711Z,101019.78
2022-08-11T10:56:08.555Z,101018.78
2022-08-11T11:01:11.389Z,101014.00
2022-08-11T11:06:28.354Z,101010.19
2022-08-11T11:11:53.909Z,101005.50
2022-08-11T11:17:29.217Z,100994.44
2022-08-11T11:22:41.449Z,101007.56
2022-08-11T11:27:58.170Z,100987.38
2022-08-11T11:33:04.393Z,100991.69
2022-08-11T11:38:13.837Z,100983.16
2022-08-11T11:43:18.477Z,100986.72
2022-08-11T11:48:21.391Z,100982.28
2022-08-11T11:53:24.195Z,100980.19
2022-08-11T11:58:46.330Z,100973.59
2022-08-11T12:03:50.999Z,100957.38
2022-08-11T12:08:56.289Z,100964.47
2022-08-11T12:14:01.638Z,100951.69
2022-08-11T12:19:06.716Z,100950.69
2022-08-11T12:24:29.183Z,100938.50
2022-08-11T12:29:34.993Z,100942.94
2022-08-11T12:34:37.784Z,100941.94
2022-08-11T12:40:10.944Z,100931.84
2022-08-11T12:45:31.404Z,100926.91
2022-08-11T12:50:51.434Z,100915.13
2022-08-11T12:56:11.834Z,100918.50
2022-08-11T13:01:33.501Z,100912.75
2022-08-11T13:06:37.673Z,100918.53
2022-08-11T13:11:57.745Z,100895.69
2022-08-11T13:17:19.583Z,100899.81
2022-08-11T13:22:23.158Z,100894.34
2022-08-11T13:27:26.024Z,100893.38
2022-08-11T13:32:30.143Z,100883.16
2022-08-11T13:38:19.285Z,100881.16
2022-08-11T13:42:59.013Z,100862.81
2022-08-11T13:48:03.161Z,100858.00
2022-08-11T13:53:05.915Z,100850.31
2022-08-11T13:58:19.076Z,100840.06
2022-08-11T14:03:26.942Z,100835.53
2022-08-11T14:08:49.644Z,100837.25
2022-08-11T14:13:53.004Z,100830.84
2022-08-11T14:18:59.288Z,100827.00
2022-08-11T14:24:02.768Z,100813.47
2022-08-11T14:29:08.910Z,100819.59
2022-08-11T14:34:14.578Z,100813.03
2022-08-11T14:39:18.620Z,100818.22
2022-08-11T14:44:39.084Z,100806.41
2022-08-11T14:49:58.493Z,100801.69
2022-08-11T14:55:24.771Z,100795.72
2022-08-11T15:00:27.660Z,100791.03
2022-08-11T15:05:31.800Z,100791.59
2022-08-11T15:10:34.625Z,100793.16
2022-08-11T15:15:55.180Z,100781.91
2022-08-11T15:21:17.043Z,100784.06
2022-08-11T15:26:40.875Z,100771.78
2022-08-11T15:32:01.235Z,100778.78
2022-08-11T15:37:26.324Z,100780.34
2022-08-11T15:42:46.877Z,100771.91
2022-08-11T15:47:57.541Z,100772.50
2022-08-11T15:53:10.739Z,100768.75
2022-08-11T15:58:30.951Z,100769.75
2022-08-11T16:04:06.502Z,100767.19
2022-08-11T16:09:18.437Z,100760.50
2022-08-11T16:14:39.577Z,100748.63
2022-08-11T16:19:42.555Z,100752.91
2022-08-11T16:27:01.642Z,100753.22
2022-08-11T16:30:10.410Z,100747.97
2022-08-11T16:35:34.091Z,100742.69
2022-08-11T16:40:38.566Z,100736.56
2022-08-11T16:45:59.845Z,100732.72
2022-08-11T16:51:02.965Z,100743.81
2022-08-11T16:56:07.806Z,100749.25
2022-08-11T17:01:10.866Z,100749.25
2022-08-11T17:06:31.278Z,100747.53
2022-08-11T17:12:09.902Z,100751.41
2022-08-11T17:17:14.646Z,100742.28
2022-08-11T17:22:35.356Z,100748.13
2022-08-11T17:27:39.742Z,100754.06
2022-08-11T17:33:01.826Z,100744.94
2022-08-11T17:38:06.580Z,100741.53
2022-08-11T17:43:36.831Z,100743.25
2022-08-11T17:48:47.975Z,100739.84
2022-08-11T17:54:24.685Z,100740.09
2022-08-11T18:00:01.238Z,100733.72
2022-08-11T18:05:07.430Z,100747.84
2022-08-11T18:10:35.637Z,100750.22
2022-08-11T18:16:02.519Z,100761.06
2022-08-11T18:21:24.705Z,100765.06
2022-08-11T18:26:45.240Z,100767.94
2022-08-11T18:32:08.109Z,100774.75
2022-08-11T18:37:30.202Z,100780.19
2022-08-11T18:42:50.534Z,100779.63
2022-08-11T18:48:14.752Z,100774.78
2022-08-11T18:53:35.428Z,100782.47
2022-08-11T18:58:55.898Z,100788.03
2022-08-11T19:04:19.354Z,100778.91
2022-08-11T19:09:39.665Z,100781.50
2022-08-11T19:15:00.282Z,100787.75
2022-08-11T19:20:22.337Z,100782.75
2022-08-11T19:25:42.907Z,100796.72
2022-08-11T19:31:03.494Z,100803.84
2022-08-11T19:36:25.750Z,100805.41
2022-08-11T19:41:57.234Z,100810.81
2022-08-11T19:47:18.562Z,100813.53
2022-08-11T19:52:40.645Z,100812.66
2022-08-11T19:58:01.502Z,100805.53
2022-08-11T20:03:24.312Z,100797.41
2022-08-11T20:08:45.929Z,100793.56
2022-08-11T20:14:07.598Z,100795.41
2022-08-11T20:19:54.654Z,100793.56
2022-08-11T20:25:11.284Z,100798.72
2022-08-11T20:30:31.743Z,100808.38
2022-08-11T20:35:52.387Z,100804.97
2022-08-11T20:41:16.308Z,100809.09
2022-08-11T20:46:36.854Z,100814.50
2022-08-11T20:51:57.608Z,100824.19
2022-08-11T20:57:20.807Z,100813.50
2022-08-11T21:02:58.072Z,100822.22
2022-08-11T21:08:19.494Z,100824.03
2022-08-11T21:13:48.644Z,100826.63
2022-08-11T21:19:13.807Z,100833.16
2022-08-11T21:24:34.356Z,100839.31
2022-08-11T21:29:56.125Z,100840.16
2022-08-11T21:35:16.276Z,100839.31
2022-08-11T21:40:36.652Z,100849.53
2022-08-11T21:45:58.552Z,100843.28
2022-08-11T21:51:19.105Z,100842.56
2022-08-11T21:56:39.605Z,100848.56
2022-08-11T22:02:02.673Z,100845.84
2022-08-11T22:07:23.484Z,100866.50
2022-08-11T22:12:45.170Z,100855.81
2022-08-11T22:18:07.366Z,100845.00
2022-08-11T22:23:36.325Z,100841.44
2022-08-11T22:28:57.582Z,100841.59
2022-08-11T22:34:18.903Z,100843.00
2022-08-11T22:39:39.282Z,100840.88
2022-08-11T22:44:59.584Z,100841.88
2022-08-11T22:50:21.231Z,100844.28
2022-08-11T22:55:41.531Z,100846.28
2022-08-11T23:01:02.095Z,100849.84
2022-08-11T23:06:24.042Z,100858.97
2022-08-11T23:12:07.843Z,100855.41
2022-08-11T23:17:24.272Z,100862.78
2022-08-11T23:22:50.237Z,100854.13
2022-08-11T23:28:10.918Z,100857.66
2022-08-11T23:33:31.376Z,100856.97
2022-08-11T23:38:53.047Z,100846.44
2022-08-11T23:44:13.515Z,100844.72
2022-08-11T23:49:34.146Z,100840.03
2022-08-11T23:54:55.956Z,100844.69
